createdAt,value
2022-12-28T00:01:08.619Z,348.35
2022-12-28T00:06:08.519Z,350.19
2022-12-28T00:11:12.317Z,354.30
2022-12-28T00:16:09.439Z,355.06
2022-12-28T00:21:08.309Z,353.92
2022-12-28T00:26:08.330Z,353.17
2022-12-28T00:31:08.238Z,353.17
2022-12-28T00:36:08.111Z,353.55
2022-12-28T00:41:08.077Z,350.93
2022-12-28T00:46:08.032Z,349.45
2022-12-28T00:51:07.988Z,348.71
2022-12-28T00:56:07.912Z,348.71
2022-12-28T01:01:07.906Z,346.17
2022-12-28T01:06:34.027Z,341.18
2022-12-28T01:11:26.402Z,333.97
2022-12-28T01:16:26.420Z,330.97
2022-12-28T01:21:26.316Z,334.98
2022-12-28T01:26:26.237Z,334.98
2022-12-28T01:31:26.205Z,336.68
2022-12-28T01:36:26.110Z,333.64
2022-12-28T01:41:25.991Z,331.64
2022-12-28T01:46:25.947Z,329.33
2022-12-28T01:51:25.873Z,328.03
2022-12-28T01:56:25.870Z,329.66
2022-12-28T02:01:25.842Z,334.65
2022-12-28T02:06:25.728Z,332.63
2022-12-28T02:11:25.606Z,329.99
2022-12-28T02:16:25.617Z,328.35
2022-12-28T02:21:25.472Z,321.98
2022-12-28T02:26:25.422Z,326.42
2022-12-28T02:31:25.325Z,329.33
2022-12-28T02:36:25.293Z,329.33
2022-12-28T02:41:25.204Z,326.74
2022-12-28T02:46:25.150Z,322.61
2022-12-28T02:51:25.064Z,319.50
2022-12-28T02:56:25.016Z,316.15
2022-12-28T03:01:24.974Z,315.85
2022-12-28T03:06:30.109Z,313.17
2022-12-28T03:11:25.811Z,315.25
2022-12-28T03:16:24.727Z,321.67
2022-12-28T03:21:25.385Z,319.50
2022-12-28T03:26:24.613Z,318.58
2022-12-28T03:31:24.562Z,319.19
2022-12-28T03:36:24.479Z,317.67
2022-12-28T03:41:24.396Z,315.25
2022-12-28T03:46:24.439Z,315.55
2022-12-28T03:51:24.273Z,314.95
2022-12-28T03:56:24.221Z,310.82
2022-12-28T04:01:24.184Z,310.53
2022-12-28T04:06:24.089Z,311.11
2022-12-28T04:11:23.998Z,308.51
2022-12-28T04:16:24.002Z,313.17
2022-12-28T04:21:23.857Z,311.99
2022-12-28T04:26:23.820Z,311.40
2022-12-28T04:31:23.745Z,311.40
2022-12-28T04:36:23.676Z,314.36
2022-12-28T04:41:23.584Z,314.65
2022-12-28T04:46:23.548Z,317.97
2022-12-28T04:51:23.446Z,318.27
2022-12-28T04:56:23.407Z,320.43
2022-12-28T05:01:23.430Z,324.82
2022-12-28T05:06:23.282Z,322.92
2022-12-28T05:11:23.166Z,319.19
2022-12-28T05:16:55.674Z,320.43
2022-12-28T05:21:48.108Z,322.92
2022-12-28T05:26:48.001Z,317.97
2022-12-28T05:31:47.987Z,314.06
2022-12-28T05:36:47.838Z,312.58
2022-12-28T05:41:47.811Z,305.95
2022-12-28T05:46:47.743Z,303.43
2022-12-28T05:51:47.732Z,302.88
2022-12-28T05:56:47.594Z,302.33
2022-12-28T06:01:47.601Z,304.27
2022-12-28T06:06:47.453Z,305.11
2022-12-28T06:11:47.411Z,305.67
2022-12-28T06:16:47.394Z,303.43
2022-12-28T06:21:47.275Z,305.11
2022-12-28T06:26:47.174Z,306.51
2022-12-28T06:31:47.225Z,303.71
2022-12-28T06:36:47.066Z,304.83
2022-12-28T06:41:47.035Z,304.55
2022-12-28T06:46:46.934Z,307.37
2022-12-28T06:51:46.872Z,307.37
2022-12-28T06:56:46.812Z,306.23
2022-12-28T07:01:46.811Z,307.08
2022-12-28T07:06:46.658Z,306.80
2022-12-28T07:11:46.622Z,306.51
2022-12-28T07:16:46.509Z,308.80
2022-12-28T07:21:46.463Z,307.37
2022-12-28T07:26:46.381Z,305.67
2022-12-28T07:31:46.307Z,308.51
2022-12-28T07:36:46.271Z,310.24
2022-12-28T07:41:46.205Z,308.51
2022-12-28T07:46:46.131Z,308.22
2022-12-28T07:51:46.076Z,306.80
2022-12-28T07:56:47.053Z,299.33
2022-12-28T08:01:46.003Z,300.14
2022-12-28T08:06:45.883Z,302.60
2022-12-28T08:11:45.793Z,305.95
2022-12-28T08:16:45.732Z,304.27
2022-12-28T08:21:45.650Z,301.77
2022-12-28T08:26:45.613Z,302.88
2022-12-28T08:31:45.517Z,303.71
2022-12-28T08:36:45.475Z,302.33
2022-12-28T08:41:45.359Z,300.68
2022-12-28T08:46:45.508Z,300.14
2022-12-28T08:51:45.286Z,301.77
2022-12-28T08:56:45.200Z,301.23
2022-12-28T09:01:45.299Z,299.60
2022-12-28T09:06:45.060Z,303.15
2022-12-28T09:11:45.054Z,305.67
2022-12-28T09:16:44.923Z,301.23
2022-12-28T09:21:44.899Z,299.87
2022-12-28T09:26:44.791Z,300.95
2022-12-28T09:31:44.740Z,303.43
2022-12-28T09:36:44.641Z,299.33
2022-12-28T09:41:44.569Z,297.45
2022-12-28T09:46:48.765Z,296.12
2022-12-28T09:51:44.435Z,295.07
2022-12-28T09:56:44.399Z,294.28
2022-12-28T10:01:44.422Z,288.15
2022-12-28T10:06:44.291Z,283.23
2022-12-28T10:11:44.184Z,280.59
2022-12-28T10:16:48.684Z,278.24
2022-12-28T10:21:44.072Z,279.65
2022-12-28T10:26:44.644Z,279.18
2022-12-28T10:31:43.958Z,279.88
2022-12-28T10:36:43.864Z,280.36
2022-12-28T10:41:43.775Z,279.88
2022-12-28T10:46:44.693Z,281.55
2022-12-28T10:51:43.627Z,281.55
2022-12-28T10:56:43.694Z,278.47
2022-12-28T11:01:43.657Z,274.78
2022-12-28T11:06:43.482Z,274.78
2022-12-28T11:11:43.431Z,275.70
2022-12-28T11:16:43.330Z,272.98
2022-12-28T11:21:43.934Z,276.62
2022-12-28T11:26:43.163Z,274.78
2022-12-28T11:31:43.104Z,276.62
2022-12-28T11:36:43.036Z,277.31
2022-12-28T11:41:56.101Z,275.70
2022-12-28T11:46:43.979Z,276.85
2022-12-28T11:51:42.845Z,279.41
2022-12-28T11:56:42.765Z,280.36
2022-12-28T12:01:42.742Z,282.99
2022-12-28T12:06:42.663Z,283.23
2022-12-28T12:11:42.584Z,281.55
2022-12-28T12:16:42.530Z,284.44
2022-12-28T12:21:42.441Z,282.75
2022-12-28T12:26:42.345Z,279.18
2022-12-28T12:31:42.313Z,279.88
2022-12-28T12:36:42.227Z,278.94
2022-12-28T12:41:42.177Z,276.16
2022-12-28T12:46:42.107Z,272.98
2022-12-28T12:51:42.059Z,274.56
2022-12-28T12:56:41.978Z,271.86
2022-12-28T13:01:42.994Z,276.62
2022-12-28T13:06:41.829Z,278.24
2022-12-28T13:11:41.812Z,279.88
2022-12-28T13:16:41.688Z,279.88
2022-12-28T13:21:41.657Z,278.47
2022-12-28T13:26:41.570Z,279.41
2022-12-28T13:32:07.088Z,282.51
2022-12-28T13:36:59.880Z,280.83
2022-12-28T13:41:59.396Z,280.36
2022-12-28T13:46:59.415Z,283.23
2022-12-28T13:52:00.037Z,280.83
2022-12-28T13:57:14.680Z,280.12
2022-12-28T14:02:00.286Z,277.08
2022-12-28T14:06:59.101Z,274.56
2022-12-28T14:11:59.039Z,272.53
2022-12-28T14:16:58.969Z,277.08
2022-12-28T14:21:58.911Z,275.70
2022-12-28T14:26:59.118Z,275.70
2022-12-28T14:31:58.750Z,278.94
2022-12-28T14:36:58.707Z,277.77
2022-12-28T14:41:59.312Z,281.55
2022-12-28T14:46:58.581Z,282.51
2022-12-28T14:51:58.477Z,283.71
2022-12-28T14:56:59.951Z,287.90
2022-12-28T15:01:58.439Z,286.16
2022-12-28T15:06:58.312Z,283.71
2022-12-28T15:11:58.221Z,280.36
2022-12-28T15:16:58.233Z,282.02
2022-12-28T15:21:58.075Z,286.90
2022-12-28T15:26:58.036Z,291.69
2022-12-28T15:31:57.989Z,295.07
2022-12-28T15:36:57.911Z,297.71
2022-12-28T15:41:57.793Z,294.54
2022-12-28T15:46:57.800Z,297.45
2022-12-28T15:51:57.707Z,298.79
2022-12-28T15:56:57.650Z,297.18
2022-12-28T16:01:57.727Z,298.25
2022-12-28T16:06:57.569Z,300.14
2022-12-28T16:11:57.443Z,299.33
2022-12-28T16:16:57.468Z,297.45
2022-12-28T16:21:57.308Z,294.54
2022-12-28T16:26:57.243Z,291.95
2022-12-28T16:31:57.204Z,288.90
2022-12-28T16:36:57.251Z,289.15
2022-12-28T16:41:57.034Z,286.41
2022-12-28T16:46:56.965Z,284.69
2022-12-28T16:51:56.879Z,285.67
2022-12-28T16:56:56.848Z,286.90
2022-12-28T17:01:56.944Z,286.65
2022-12-28T17:06:56.715Z,288.15
2022-12-28T17:11:58.074Z,285.67
2022-12-28T17:16:56.632Z,285.42
2022-12-28T17:21:56.456Z,287.40
2022-12-28T17:26:59.190Z,284.69
2022-12-28T17:31:57.395Z,285.18
2022-12-28T17:36:56.287Z,281.79
2022-12-28T17:41:56.210Z,277.31
2022-12-28T17:46:56.167Z,279.88
2022-12-28T17:51:56.085Z,280.36
2022-12-28T17:56:56.073Z,281.79
2022-12-28T18:01:56.157Z,282.75
2022-12-28T18:06:55.903Z,280.83
2022-12-28T18:11:55.808Z,276.39
2022-12-28T18:16:55.906Z,278.47
2022-12-28T18:21:55.707Z,281.55
2022-12-28T18:26:55.669Z,287.15
2022-12-28T18:31:55.538Z,287.40
2022-12-28T18:36:55.493Z,293.24
2022-12-28T18:41:55.402Z,298.25
2022-12-28T18:46:55.405Z,294.02
2022-12-28T18:51:55.295Z,289.15
2022-12-28T18:56:55.233Z,289.15
2022-12-28T19:02:06.283Z,285.91
2022-12-28T19:06:56.153Z,283.23
2022-12-28T19:11:55.006Z,284.20
2022-12-28T19:16:54.945Z,281.07
2022-12-28T19:21:58.586Z,281.55
2022-12-28T19:26:54.833Z,274.78
2022-12-28T19:31:54.795Z,271.41
2022-12-28T19:36:54.672Z,267.91
2022-12-28T19:41:54.601Z,267.91
2022-12-28T19:46:54.649Z,264.91
2022-12-28T19:51:54.480Z,271.64
2022-12-28T19:56:54.412Z,273.20
2022-12-28T20:01:54.519Z,273.88
2022-12-28T20:06:54.275Z,268.99
2022-12-28T20:11:54.192Z,264.07
2022-12-28T20:16:54.184Z,264.28
2022-12-28T20:21:54.067Z,266.40
2022-12-28T20:27:01.138Z,267.04
2022-12-28T20:31:55.047Z,268.56
2022-12-28T20:36:53.891Z,269.21
2022-12-28T20:41:53.811Z,268.34
2022-12-28T20:46:53.831Z,266.40
2022-12-28T20:51:53.685Z,264.28
2022-12-28T20:56:55.680Z,262.40
2022-12-28T21:01:53.733Z,262.19
2022-12-28T21:06:53.504Z,262.40
2022-12-28T21:11:53.447Z,263.86
2022-12-28T21:16:53.543Z,274.56
2022-12-28T21:21:53.280Z,280.59
2022-12-28T21:26:53.202Z,284.69
2022-12-28T21:31:53.155Z,288.15
2022-12-28T21:36:53.092Z,290.93
2022-12-28T21:41:53.005Z,287.40
2022-12-28T21:46:52.961Z,291.18
2022-12-28T21:51:52.857Z,295.33
2022-12-28T21:56:52.879Z,295.86
2022-12-28T22:01:52.943Z,293.76
2022-12-28T22:06:52.709Z,293.76
2022-12-28T22:11:52.597Z,293.50
2022-12-28T22:16:52.595Z,285.42
2022-12-28T22:21:52.455Z,281.55
2022-12-28T22:26:52.427Z,279.88
2022-12-28T22:31:52.399Z,275.70
2022-12-28T22:36:52.264Z,273.88
2022-12-28T22:41:52.227Z,274.10
2022-12-28T22:46:52.129Z,271.64
2022-12-28T22:51:52.053Z,268.56
2022-12-28T22:56:51.989Z,268.12
2022-12-28T23:01:52.044Z,263.86
2022-12-28T23:06:51.889Z,263.02
2022-12-28T23:11:51.847Z,264.07
2022-12-28T23:16:51.786Z,266.40
2022-12-28T23:21:52.176Z,274.10
2022-12-28T23:26:51.603Z,272.98
2022-12-28T23:31:53.515Z,270.97
2022-12-28T23:36:51.463Z,269.65
2022-12-28T23:41:51.399Z,271.19
2022-12-28T23:46:56.910Z,270.09
2022-12-28T23:51:52.287Z,270.75
2022-12-28T23:56:51.225Z,269.87
